Time;durP1;ratioP1;P1;durP2;ratioP2;P2;SDS_P1;SDS_P2;PMS_P1;PMS_P2;Temp;Humidity;BMP_temperature;BMP_pressure;BME280_temperature;BME280_humidity;BME280_pressure;Samples;Min_cycle;Max_cycle;Signal;HPM_P1;HPM_P2
2023/05/28 00:02:07;;;;;;;7.3;4;;;;;;;-143.2;100;77080;;;;
2023/05/28 00:13:07;;;;;;;7.3;4;;;;;;;-143.2;100;77100;;;;
2023/05/28 00:23:07;;;;;;;7.4;3.4;;;;;;;-143.2;100;77120;;;;
2023/05/28 00:33:07;;;;;;;7.4;3.4;;;;;;;-143.2;100;77140;;;;
2023/05/28 00:43:07;;;;;;;7.4;3.4;;;;;;;-143.2;100;77140;;;;
2023/05/28 00:54:07;;;;;;;8.9;4;;;;;;;-143.2;100;77130;;;;
2023/05/28 01:05:08;;;;;;;8.9;4;;;;;;;-143.2;100;77160;;;;
2023/05/28 01:16:07;;;;;;;7.2;4;;;;;;;-143.2;100;77180;;;;
2023/05/28 01:26:07;;;;;;;7.2;4;;;;;;;-143.2;100;77200;;;;
2023/05/28 01:37:07;;;;;;;7.2;4;;;;;;;-143.2;100;77220;;;;
2023/05/28 01:48:07;;;;;;;7.8;3.3;;;;;;;-143.2;100;77220;;;;
2023/05/28 01:58:08;;;;;;;7.8;3.3;;;;;;;-143.2;100;77230;;;;
2023/05/28 02:08:07;;;;;;;7.8;3.3;;;;;;;-143.2;100;77250;;;;
2023/05/28 02:19:07;;;;;;;6.9;3;;;;;;;-143.2;100;77260;;;;
2023/05/28 02:29:07;;;;;;;6.9;3;;;;;;;-143.2;100;77280;;;;
2023/05/28 02:40:09;;;;;;;6.9;3;;;;;;;-143.2;100;77280;;;;
2023/05/28 02:50:07;;;;;;;8.1;3.4;;;;;;;-143.2;100;77290;;;;
2023/05/28 03:01:07;;;;;;;8.1;3.4;;;;;;;-143.2;100;77280;;;;
2023/05/28 03:11:07;;;;;;;8.1;3.4;;;;;;;-143.2;100;77270;;;;
2023/05/28 03:21:07;;;;;;;5.8;2.8;;;;;;;-143.2;100;77250;;;;
2023/05/28 03:31:07;;;;;;;5.8;2.8;;;;;;;-143.2;100;77230;;;;
2023/05/28 03:42:07;;;;;;;5.8;2.8;;;;;;;-143.2;100;77180;;;;
2023/05/28 03:52:07;;;;;;;6.6;2.9;;;;;;;-143.2;100;77160;;;;
2023/05/28 04:02:07;;;;;;;6.6;2.9;;;;;;;-143.2;100;77120;;;;
2023/05/28 04:13:07;;;;;;;6.6;2.9;;;;;;;-143.2;100;77070;;;;
2023/05/28 04:23:07;;;;;;;7.1;3.5;;;;;;;-143.2;100;77020;;;;
2023/05/28 04:34:07;;;;;;;7.1;3.5;;;;;;;-143.2;100;76970;;;;
2023/05/28 04:45:07;;;;;;;11.2;3.5;;;;;;;-143.2;100;76910;;;;
2023/05/28 04:55:07;;;;;;;11.2;3.5;;;;;;;-143.2;97.9;76850;;;;
2023/05/28 05:06:07;;;;;;;11.2;3.5;;;;;;;-143.2;95.6;76810;;;;
2023/05/28 05:16:07;;;;;;;8;3.3;;;;;;;-143.2;94.2;76780;;;;
2023/05/28 05:27:07;;;;;;;8;3.3;;;;;;;-143.2;93.9;76730;;;;
2023/05/28 05:38:07;;;;;;;8;3.3;;;;;;;-143.2;92;76720;;;;
2023/05/28 05:48:07;;;;;;;8.1;3.6;;;;;;;-143.2;89.9;76640;;;;
2023/05/28 05:59:07;;;;;;;8.1;3.6;;;;;;;-143.2;88.7;76600;;;;
2023/05/28 06:09:08;;;;;;;8.1;3.6;;;;;;;-143.2;88.3;76570;;;;
2023/05/28 06:20:07;;;;;;;8.4;4.8;;;;;;;-143.2;86.3;76490;;;;
2023/05/28 06:31:07;;;;;;;8.4;4.8;;;;;;;-143.2;85.7;76470;;;;
2023/05/28 06:42:07;;;;;;;8.4;4.8;;;;;;;-143.2;84.4;76400;;;;
2023/05/28 06:52:07;;;;;;;8.2;4.8;;;;;;;-143.2;83;76330;;;;
2023/05/28 07:02:07;;;;;;;8.2;4.8;;;;;;;-143.2;81.9;76300;;;;
2023/05/28 07:13:07;;;;;;;8.2;4.8;;;;;;;-143.2;81.7;76230;;;;
2023/05/28 07:24:07;;;;;;;9.3;5;;;;;;;-143.2;80.5;76200;;;;
2023/05/28 07:34:07;;;;;;;9.3;5;;;;;;;-143.2;79.3;76180;;;;
2023/05/28 07:45:07;;;;;;;9;4.9;;;;;;;-143.2;77.9;76140;;;;
2023/05/28 07:55:07;;;;;;;9;4.9;;;;;;;-143.2;78.1;76070;;;;
2023/05/28 08:06:08;;;;;;;9;4.9;;;;;;;-143.2;73.4;76030;;;;
2023/05/28 08:16:07;;;;;;;6.2;2.9;;;;;;;-143.2;72.1;75990;;;;
2023/05/28 08:27:07;;;;;;;6.2;2.9;;;;;;;-143.2;72.7;75920;;;;
2023/05/28 08:38:07;;;;;;;6.2;2.9;;;;;;;-143.2;69.4;75890;;;;
2023/05/28 08:48:07;;;;;;;7.3;3.7;;;;;;;-143.2;67.2;75920;;;;
2023/05/28 08:59:07;;;;;;;7.3;3.7;;;;;;;-143.2;65.3;75830;;;;
2023/05/28 09:10:07;;;;;;;7.3;3.7;;;;;;;-143.2;64.9;75790;;;;
2023/05/28 09:20:10;;;;;;;7;2.8;;;;;;;-143.2;65.1;75760;;;;
2023/05/28 09:31:07;;;;;;;7;2.8;;;;;;;-143.2;61.1;75720;;;;
2023/05/28 09:41:09;;;;;;;7;2.8;;;;;;;-143.2;61;75690;;;;
2023/05/28 09:51:07;;;;;;;5.8;2.3;;;;;;;-143.2;59.2;75670;;;;
2023/05/28 10:02:07;;;;;;;5.8;2.3;;;;;;;-143.2;61.6;75650;;;;
2023/05/28 10:12:07;;;;;;;5.8;2.3;;;;;;;-143.2;59.3;75670;;;;
2023/05/28 10:23:07;;;;;;;6;2.8;;;;;;;-143.2;61.6;75630;;;;
2023/05/28 10:33:07;;;;;;;6;2.8;;;;;;;-143.2;61.6;75590;;;;
2023/05/28 10:44:07;;;;;;;6;2.8;;;;;;;-143.2;63.9;75560;;;;
2023/05/28 10:55:07;;;;;;;7.4;3.1;;;;;;;-143.2;61.6;75590;;;;
2023/05/28 11:05:07;;;;;;;7.4;3.1;;;;;;;-143.2;61.5;75510;;;;
2023/05/28 11:16:07;;;;;;;6.6;2.5;;;;;;;-143.2;60;75520;;;;
2023/05/28 11:27:07;;;;;;;6.6;2.5;;;;;;;-143.2;53.7;75470;;;;
2023/05/28 11:37:07;;;;;;;6.6;2.5;;;;;;;-143.2;53.8;75440;;;;
2023/05/28 11:48:07;;;;;;;5.9;2.7;;;;;;;-143.2;54.6;75430;;;;
2023/05/28 11:58:08;;;;;;;5.9;2.7;;;;;;;-143.2;54.9;75370;;;;
2023/05/28 12:09:07;;;;;;;5.9;2.7;;;;;;;-143.2;54.4;75370;;;;
2023/05/28 12:20:07;;;;;;;5.7;2.4;;;;;;;-143.2;52.7;75330;;;;
2023/05/28 12:30:07;;;;;;;5.7;2.4;;;;;;;-143.2;55.2;75390;;;;
2023/05/28 12:41:07;;;;;;;5.7;2.4;;;;;;;-143.2;53;75320;;;;
2023/05/28 12:51:07;;;;;;;5.2;2.1;;;;;;;-143.2;52;75330;;;;
2023/05/28 13:02:07;;;;;;;5.2;2.1;;;;;;;-143.2;53.5;75310;;;;
2023/05/28 13:13:07;;;;;;;5.2;2.1;;;;;;;-143.2;51.7;75320;;;;
2023/05/28 13:23:07;;;;;;;5.9;2.8;;;;;;;-143.2;52.6;75220;;;;
2023/05/28 13:34:07;;;;;;;5.9;2.8;;;;;;;-143.2;52.4;75220;;;;
2023/05/28 13:44:07;;;;;;;5.9;2.8;;;;;;;-143.2;49.9;75210;;;;
2023/05/28 13:55:07;;;;;;;6.5;2.6;;;;;;;-143.2;49.1;75110;;;;
2023/05/28 14:06:07;;;;;;;6.5;2.6;;;;;;;-143.2;47.6;75090;;;;
2023/05/28 14:16:07;;;;;;;7.3;2.6;;;;;;;-143.2;48.9;75120;;;;
2023/05/28 14:26:07;;;;;;;7.3;2.6;;;;;;;-143.2;46.1;75020;;;;
2023/05/28 14:37:07;;;;;;;7.3;2.6;;;;;;;-143.2;47.6;75030;;;;
2023/05/28 14:47:07;;;;;;;4.3;2.1;;;;;;;-143.2;47.4;74970;;;;
2023/05/28 14:57:07;;;;;;;4.3;2.1;;;;;;;-143.2;46.4;74950;;;;
2023/05/28 15:07:07;;;;;;;4.3;2.1;;;;;;;-143.2;45.4;74830;;;;
2023/05/28 15:18:07;;;;;;;4.8;2.1;;;;;;;-143.2;44.2;74760;;;;
2023/05/28 15:28:08;;;;;;;4.8;2.1;;;;;;;-143.2;43.8;74730;;;;
2023/05/28 15:39:09;;;;;;;4.8;2.1;;;;;;;-143.2;43.8;74720;;;;
2023/05/28 15:50:07;;;;;;;5.9;2.5;;;;;;;-143.2;44.4;74750;;;;
2023/05/28 16:01:07;;;;;;;5.9;2.5;;;;;;;-143.2;45.2;74720;;;;
2023/05/28 16:11:07;;;;;;;5.9;2.5;;;;;;;-143.2;44;74760;;;;
2023/05/28 16:22:07;;;;;;;4.2;2.2;;;;;;;-143.2;47.4;75030;;;;
2023/05/28 16:32:08;;;;;;;4.2;2.2;;;;;;;-143.2;47;74970;;;;
2023/05/28 16:42:07;;;;;;;4.2;2.2;;;;;;;-143.2;47.7;75040;;;;
2023/05/28 16:52:07;;;;;;;5.9;2.3;;;;;;;-143.2;46.6;75040;;;;
2023/05/28 17:03:08;;;;;;;5.9;2.3;;;;;;;-143.2;47.2;75070;;;;
2023/05/28 17:14:07;;;;;;;5.9;2.3;;;;;;;-143.2;49.4;75170;;;;
2023/05/28 17:25:07;;;;;;;5.4;1.8;;;;;;;-143.2;53.1;75340;;;;
2023/05/28 17:35:07;;;;;;;5.4;1.8;;;;;;;-143.2;54.8;75390;;;;
2023/05/28 17:45:07;;;;;;;5.4;1.8;;;;;;;-143.2;56;75450;;;;
2023/05/28 17:56:07;;;;;;;5.3;2.5;;;;;;;-143.2;57.4;75520;;;;
2023/05/28 18:06:08;;;;;;;5.3;2.5;;;;;;;-143.2;59.6;75600;;;;
2023/05/28 18:17:07;;;;;;;6.4;3;;;;;;;-143.2;62;75690;;;;
2023/05/28 18:28:07;;;;;;;6.4;3;;;;;;;-143.2;63.3;75740;;;;
2023/05/28 18:38:07;;;;;;;6.4;3;;;;;;;-143.2;66;75800;;;;
2023/05/28 18:49:07;;;;;;;8.5;4.2;;;;;;;-143.2;66.5;75870;;;;
2023/05/28 19:00:07;;;;;;;8.5;4.2;;;;;;;-143.2;68.2;75940;;;;
2023/05/28 19:10:07;;;;;;;8.5;4.2;;;;;;;-143.2;70.5;75990;;;;
2023/05/28 19:20:07;;;;;;;10.3;7.1;;;;;;;-143.2;73.3;76040;;;;
2023/05/28 19:31:07;;;;;;;10.3;7.1;;;;;;;-143.2;75.9;76100;;;;
2023/05/28 19:42:07;;;;;;;10.3;7.1;;;;;;;-143.2;78.2;76120;;;;
2023/05/28 19:52:07;;;;;;;10.7;6.5;;;;;;;-143.2;79.3;76150;;;;
2023/05/28 20:02:07;;;;;;;10.7;6.5;;;;;;;-143.2;83.1;76190;;;;
2023/05/28 20:13:07;;;;;;;10.7;6.5;;;;;;;-143.2;80;76250;;;;
2023/05/28 20:24:07;;;;;;;8.8;6;;;;;;;-143.2;85.1;76300;;;;
2023/05/28 20:34:11;;;;;;;8.8;6;;;;;;;-143.2;85.9;76330;;;;
2023/05/28 20:44:07;;;;;;;8.8;6;;;;;;;-143.2;87.5;76360;;;;
2023/05/28 22:07:35;;;;;;;11.3;5.5;;;;;;;-143.2;92.9;76530;;;;
2023/05/28 22:17:35;;;;;;;11.3;5.5;;;;;;;-143.2;94;76560;;;;
2023/05/28 22:27:35;;;;;;;11.3;5.5;;;;;;;-143.2;96.1;76580;;;;
2023/05/28 22:37:35;;;;;;;9.7;4.5;;;;;;;-143.2;96.8;76610;;;;
2023/05/28 22:47:36;;;;;;;9.7;4.5;;;;;;;-143.2;97.6;76630;;;;
2023/05/28 22:58:35;;;;;;;9.7;4.5;;;;;;;-143.2;100;76650;;;;
2023/05/28 23:09:35;;;;;;;9.7;5.3;;;;;;;-143.2;100;76660;;;;
2023/05/28 23:19:35;;;;;;;9.7;5.3;;;;;;;-143.2;100;76660;;;;
2023/05/28 23:29:37;;;;;;;9.7;5.3;;;;;;;-143.2;100;76650;;;;
2023/05/28 23:40:36;;;;;;;9.6;4.9;;;;;;;-143.2;100;76690;;;;
2023/05/28 23:50:35;;;;;;;9.6;4.9;;;;;;;-143.2;100;76710;;;;
